Time;durP1;ratioP1;P1;durP2;ratioP2;P2;SDS_P1;SDS_P2;PMS_P1;PMS_P2;Temp;Humidity;BMP_temperature;BMP_pressure;BME280_temperature;BME280_humidity;BME280_pressure;Samples;Min_cycle;Max_cycle;Signal;HPM_P1;HPM_P2
2022/11/01 00:11:17;;;;;;;81.47;77.53;;;;;;;12.13;100.00;100957.63;5076445;22;1263462;-75
2022/11/01 00:13:48;;;;;;;72.57;68.88;;;;;;;12.16;100.00;100951.19;5074526;28;20036;-75
2022/11/01 00:16:14;;;;;;;65.97;62.90;;;;;;;12.17;100.00;100951.00;5096234;28;20769;-75
2022/11/01 00:18:40;;;;;;;70.53;66.82;;;;;;;12.19;100.00;100950.84;5072452;28;20099;-75
2022/11/01 00:21:05;;;;;;;74.80;71.18;;;;;;;12.18;100.00;100939.44;5074705;28;20119;-75
2022/11/01 00:23:31;;;;;;;75.63;71.80;;;;;;;12.13;100.00;100932.00;5093835;28;20066;-75
2022/11/01 00:26:00;;;;;;;78.65;74.10;;;;;;;12.18;100.00;100950.03;5060613;28;20122;-75
2022/11/01 00:28:26;;;;;;;76.25;72.75;;;;;;;12.19;100.00;100950.84;5094286;28;20023;-75
2022/11/01 00:30:53;;;;;;;72.13;68.28;;;;;;;12.16;100.00;100940.59;5073569;28;20039;-75
2022/11/01 00:33:18;;;;;;;73.68;70.47;;;;;;;12.15;100.00;100937.13;5093053;28;20391;-75
2022/11/01 00:35:45;;;;;;;75.22;71.80;;;;;;;12.14;100.00;100932.81;5076897;28;20035;-76
2022/11/01 00:38:12;;;;;;;78.18;74.55;;;;;;;12.13;100.00;100933.81;5090543;28;20051;-74
2022/11/01 00:40:38;;;;;;;78.90;74.97;;;;;;;12.12;100.00;100927.66;5090476;28;20712;-75
2022/11/01 00:43:03;;;;;;;79.55;75.65;;;;;;;11.99;100.00;100907.94;5091709;28;20027;-74
2022/11/01 00:45:29;;;;;;;78.97;75.40;;;;;;;12.11;100.00;100918.09;5059047;28;20544;-74
2022/11/01 00:47:54;;;;;;;81.22;77.25;;;;;;;12.10;100.00;100905.84;5074856;28;20032;-75
2022/11/01 00:50:19;;;;;;;87.95;83.53;;;;;;;12.10;100.00;100905.00;5054410;28;20020;-74
2022/11/01 00:52:45;;;;;;;75.55;72.22;;;;;;;11.99;100.00;100887.59;5089519;28;20043;-74
2022/11/01 00:55:10;;;;;;;78.05;74.40;;;;;;;12.10;100.00;100899.72;5076889;28;20088;-74
2022/11/01 00:57:35;;;;;;;79.15;75.43;;;;;;;12.13;100.00;100894.13;5091787;28;20019;-75
2022/11/01 01:00:03;;;;;;;78.40;74.95;;;;;;;12.10;100.00;100889.13;5089719;28;20089;-75
2022/11/01 01:02:28;;;;;;;75.40;71.85;;;;;;;12.10;100.00;100884.66;5074731;28;20034;-74
2022/11/01 01:04:53;;;;;;;70.50;66.85;;;;;;;12.14;100.00;100886.00;5076765;28;20394;-75
2022/11/01 01:07:19;;;;;;;73.43;70.22;;;;;;;12.16;100.00;100888.50;5092137;28;20460;-74
2022/11/01 01:09:44;;;;;;;73.22;69.65;;;;;;;12.18;100.00;100881.25;5089319;28;20040;-76
2022/11/01 01:12:09;;;;;;;74.45;71.13;;;;;;;12.21;100.00;100875.63;5075977;28;20407;-76
2022/11/01 01:14:35;;;;;;;69.13;66.00;;;;;;;12.22;100.00;100876.47;5080796;28;20449;-74
2022/11/01 01:17:00;;;;;;;68.72;65.50;;;;;;;12.25;100.00;100870.84;5078909;28;20110;-75
2022/11/01 01:19:28;;;;;;;72.22;68.43;;;;;;;12.28;100.00;100876.66;5056800;28;20040;-75
2022/11/01 01:21:54;;;;;;;70.18;66.88;;;;;;;12.29;100.00;100878.28;5078881;28;20027;-75
2022/11/01 01:24:19;;;;;;;69.30;65.50;;;;;;;12.32;100.00;100867.41;5045634;28;20040;-75
2022/11/01 01:26:44;;;;;;;65.28;61.47;;;;;;;12.38;100.00;100862.44;5078762;28;20104;-75
2022/11/01 01:29:10;;;;;;;66.15;63.05;;;;;;;12.44;100.00;100875.03;5078461;28;20029;-75
2022/11/01 01:31:35;;;;;;;70.07;66.80;;;;;;;12.45;100.00;100871.41;5060531;28;20035;-75
2022/11/01 01:34:00;;;;;;;60.25;57.17;;;;;;;12.40;100.00;100857.81;5062177;28;20028;-75
2022/11/01 01:36:26;;;;;;;54.33;52.00;;;;;;;12.48;100.00;100860.50;5074731;28;20033;-75
2022/11/01 01:38:52;;;;;;;63.17;60.13;;;;;;;12.51;100.00;100860.16;5045664;28;20111;-77
2022/11/01 01:44:22;;;;;;;58.28;55.67;;;;;;;12.60;100.00;100863.66;5063456;28;20746;-76
2022/11/01 01:46:47;;;;;;;56.97;54.38;;;;;;;12.51;100.00;100839.00;5061745;28;20048;-75
2022/11/01 01:49:12;;;;;;;61.90;58.92;;;;;;;12.62;100.00;100854.56;5062438;28;20173;-75
2022/11/01 01:51:38;;;;;;;59.47;56.80;;;;;;;12.64;100.00;100849.94;5053445;28;20044;-76
2022/11/01 01:54:04;;;;;;;54.78;51.70;;;;;;;12.65;100.00;100848.94;5043714;28;21901;-77
2022/11/01 01:56:34;;;;;;;56.38;53.97;;;;;;;12.55;100.00;100819.97;5077720;28;20032;-75
2022/11/01 01:59:04;;;;;;;54.97;52.35;;;;;;;12.67;100.00;100831.09;5060829;28;20032;-76
2022/11/01 02:01:31;;;;;;;58.22;55.72;;;;;;;12.69;100.00;100831.72;5057350;28;20494;-77
2022/11/01 02:03:56;;;;;;;55.83;53.13;;;;;;;12.71;100.00;100819.16;5059416;28;20044;-77
2022/11/01 02:06:24;;;;;;;53.65;50.83;;;;;;;12.70;100.00;100820.16;5043293;28;20502;-77
2022/11/01 02:08:59;;;;;;;57.47;54.78;;;;;;;12.68;100.00;100803.59;5060262;28;20028;-77
2022/11/01 02:11:24;;;;;;;53.08;50.60;;;;;;;12.69;100.00;100799.94;5076477;28;20054;-77
2022/11/01 02:13:50;;;;;;;61.22;57.78;;;;;;;12.75;100.00;100807.22;5044109;28;20036;-77
2022/11/01 02:16:40;;;;;;;54.63;52.15;;;;;;;12.75;100.00;100795.81;5077379;28;20024;-77
2022/11/01 02:19:25;;;;;;;53.90;51.38;;;;;;;12.76;100.00;100785.06;5078852;28;20035;-77
2022/11/01 02:22:01;;;;;;;52.72;50.10;;;;;;;12.75;100.00;100782.56;5074172;28;20024;-77
2022/11/01 02:24:49;;;;;;;60.25;57.42;;;;;;;12.75;100.00;100783.41;5057247;28;20112;-77
2022/11/01 02:27:23;;;;;;;58.03;55.17;;;;;;;12.65;100.00;100750.97;5078578;28;20482;-75
2022/11/01 02:30:18;;;;;;;55.90;53.15;;;;;;;12.79;100.00;100773.31;5078617;28;20034;-77
2022/11/01 02:32:53;;;;;;;54.03;51.28;;;;;;;12.85;100.00;100775.31;5077468;28;20463;-77
2022/11/01 02:35:36;;;;;;;59.25;56.50;;;;;;;12.78;100.00;100761.03;5075924;28;20020;-77
2022/11/01 02:38:18;;;;;;;53.60;51.20;;;;;;;12.91;100.00;100771.13;5056341;28;20043;-77
2022/11/01 02:41:10;;;;;;;51.72;49.35;;;;;;;12.93;100.00;100758.56;5074780;28;20044;-77
2022/11/01 02:43:54;;;;;;;;;;;;;;;13.02;100.00;100760.22;5058689;28;20020;-76
2022/11/01 02:49:07;;;;;;;51.33;48.83;;;;;;;13.12;100.00;100737.00;5079669;28;20094;-77
2022/11/01 02:51:34;;;;;;;57.03;54.40;;;;;;;13.13;100.00;100737.81;5073451;28;20434;-77
2022/11/01 02:54:00;;;;;;;50.75;48.15;;;;;;;13.09;100.00;100724.09;5075379;28;20086;-76
2022/11/01 02:56:26;;;;;;;52.45;50.17;;;;;;;13.18;100.00;100740.81;5060295;28;20036;-77
2022/11/01 02:58:53;;;;;;;51.47;49.35;;;;;;;13.06;100.00;100732.38;5077771;28;20043;-77
2022/11/01 03:01:24;;;;;;;51.10;48.83;;;;;;;13.10;100.00;100738.16;5058743;28;20086;-77
2022/11/01 03:03:52;;;;;;;57.95;54.65;;;;;;;13.07;100.00;100739.34;5073472;28;20108;-78
2022/11/01 03:06:28;;;;;;;50.08;47.97;;;;;;;13.08;100.00;100738.31;5057414;28;20958;-77
2022/11/01 03:08:58;;;;;;;57.63;54.90;;;;;;;13.12;100.00;100730.88;5078824;28;20760;-77
2022/11/01 03:11:42;;;;;;;53.75;51.05;;;;;;;13.17;100.00;100724.09;5056865;28;20044;-77
2022/11/01 03:14:22;;;;;;;48.97;46.70;;;;;;;13.18;100.00;100728.38;5075148;28;20034;-77
2022/11/01 03:17:06;;;;;;;49.92;47.45;;;;;;;13.23;100.00;100724.41;5074900;28;20054;-77
2022/11/01 03:19:50;;;;;;;51.40;48.40;;;;;;;13.23;100.00;100732.34;5075640;28;20145;-77
2022/11/01 03:22:24;;;;;;;47.80;45.50;;;;;;;13.27;100.00;100737.13;5077216;28;20035;-77
2022/11/01 03:24:56;;;;;;;45.83;43.53;;;;;;;13.31;100.00;100729.72;5075282;28;20036;-77
2022/11/01 03:27:26;;;;;;;;;;;;;;;13.31;100.00;100724.41;5075536;28;20138;-76
2022/11/01 03:30:05;;;;;;;36.60;34.95;;;;;;;13.35;100.00;100725.72;5075628;28;20367;-77
2022/11/01 03:32:46;;;;;;;49.75;47.28;;;;;;;13.36;100.00;100728.19;5075363;28;20476;-77
2022/11/01 03:35:17;;;;;;;48.60;45.90;;;;;;;13.41;100.00;100713.59;5059159;28;20418;-77
2022/11/01 03:37:45;;;;;;;42.10;40.15;;;;;;;13.41;100.00;100714.41;5075003;28;20290;-77
2022/11/01 03:40:13;;;;;;;40.92;38.70;;;;;;;13.35;100.00;100708.00;5076516;28;20118;-77
2022/11/01 03:42:42;;;;;;;43.75;41.22;;;;;;;13.36;100.00;100704.31;5075104;28;20110;-77
2022/11/01 03:45:11;;;;;;;45.05;43.10;;;;;;;13.40;100.00;100706.66;5058439;28;20016;-77
2022/11/01 03:47:36;;;;;;;38.92;37.08;;;;;;;13.27;100.00;100691.25;5059072;28;20031;-77
2022/11/01 03:50:20;;;;;;;44.40;42.25;;;;;;;13.39;100.00;100700.50;5058541;28;20025;-77
2022/11/01 03:52:45;;;;;;;49.75;47.50;;;;;;;13.43;100.00;100720.38;5076562;28;20107;-77
2022/11/01 03:55:18;;;;;;;44.85;42.70;;;;;;;13.41;100.00;100721.53;5059180;28;20028;-77
2022/11/01 03:57:58;;;;;;;43.90;42.08;;;;;;;13.49;100.00;100714.38;5076186;28;20169;-77
2022/11/01 04:00:23;;;;;;;44.55;42.40;;;;;;;13.56;100.00;100714.53;5040671;28;20064;-78
2022/11/01 04:02:50;;;;;;;43.90;41.90;;;;;;;13.62;100.00;100721.78;5074541;28;20067;-77
2022/11/01 04:05:17;;;;;;;43.55;41.13;;;;;;;13.62;100.00;100715.66;5055893;28;20028;-77
2022/11/01 04:07:43;;;;;;;43.05;41.15;;;;;;;13.56;100.00;100702.06;5075254;28;20043;-77
2022/11/01 04:10:09;;;;;;;47.00;44.90;;;;;;;13.68;100.00;100715.78;5074444;28;20058;-77
2022/11/01 04:12:35;;;;;;;42.65;40.67;;;;;;;13.63;100.00;100712.00;5059648;28;20114;-75
2022/11/01 04:20:34;;;;;;;46.95;44.78;;;;;;;13.52;100.00;100698.16;5058014;28;20048;-75
2022/11/01 04:23:04;;;;;;;44.10;42.15;;;;;;;13.56;100.00;100712.69;5057876;28;20056;-77
2022/11/01 04:25:31;;;;;;;57.50;55.30;;;;;;;13.55;100.00;100707.56;5073661;28;20024;-75
2022/11/01 04:27:57;;;;;;;48.38;46.30;;;;;;;13.57;100.00;100727.63;5075400;28;20491;-75
2022/11/01 04:30:24;;;;;;;51.30;48.92;;;;;;;13.56;100.00;100709.22;5076223;28;20024;-77
2022/11/01 04:32:49;;;;;;;43.72;41.85;;;;;;;13.57;100.00;100709.06;5073411;28;20164;-77
2022/11/01 04:35:15;;;;;;;50.97;48.80;;;;;;;13.56;100.00;100704.72;5041242;28;20046;-77
2022/11/01 04:37:40;;;;;;;52.33;50.13;;;;;;;13.57;100.00;100709.06;5076762;28;20399;-78
2022/11/01 04:40:06;;;;;;;49.58;47.58;;;;;;;13.64;100.00;100722.44;5057397;28;20020;-76
2022/11/01 04:42:38;;;;;;;43.78;41.75;;;;;;;13.63;100.00;100723.47;5074038;28;20479;-78
2022/11/01 04:45:05;;;;;;;50.83;48.60;;;;;;;13.54;100.00;100703.25;5074297;28;20095;-75
2022/11/01 04:47:31;;;;;;;55.05;52.60;;;;;;;13.55;100.00;100711.03;5056498;28;20066;-75
2022/11/01 04:49:56;;;;;;;50.55;48.30;;;;;;;13.63;100.00;100718.16;5058106;28;20036;-77
2022/11/01 04:52:22;;;;;;;54.45;51.95;;;;;;;13.70;100.00;100719.09;5074622;28;20878;-76
2022/11/01 04:54:48;;;;;;;52.20;49.58;;;;;;;13.67;100.00;100713.31;5076920;28;20024;-77
2022/11/01 04:57:24;;;;;;;57.55;55.15;;;;;;;13.56;100.00;100698.59;5078257;28;20427;-77
2022/11/01 04:59:53;;;;;;;51.22;49.08;;;;;;;13.52;100.00;100700.78;5061663;28;20095;-77
2022/11/01 05:02:20;;;;;;;55.08;52.53;;;;;;;13.58;100.00;100716.00;5060371;28;20454;-75
2022/11/01 05:04:46;;;;;;;54.58;51.95;;;;;;;13.52;100.00;100722.00;5056927;28;20036;-76
2022/11/01 05:07:12;;;;;;;54.38;52.28;;;;;;;13.45;100.00;100726.31;5061086;28;20101;-77
2022/11/01 05:09:37;;;;;;;60.10;56.45;;;;;;;13.33;100.00;100707.31;5073164;28;20024;-77
2022/11/01 05:12:03;;;;;;;52.78;50.72;;;;;;;13.40;100.00;100728.69;5043327;28;20053;-77
2022/11/01 05:14:28;;;;;;;60.78;58.03;;;;;;;13.34;100.00;100718.75;5075584;28;20032;-76
2022/11/01 05:16:55;;;;;;;61.03;58.65;;;;;;;13.31;100.00;100729.72;5077169;28;20033;-78
2022/11/01 05:19:20;;;;;;;57.33;54.80;;;;;;;13.28;100.00;100730.00;5056136;28;20027;-77
2022/11/01 05:21:46;;;;;;;69.20;66.47;;;;;;;13.25;100.00;100730.34;5057642;28;20775;-76
2022/11/01 05:24:12;;;;;;;70.18;67.28;;;;;;;13.25;100.00;100738.31;5075936;28;20572;-76
2022/11/01 05:26:37;;;;;;;62.03;59.28;;;;;;;13.23;100.00;100737.66;5041041;28;20038;-75
2022/11/01 05:29:02;;;;;;;71.28;68.53;;;;;;;13.20;100.00;100743.28;5036994;28;20047;-76
2022/11/01 05:31:28;;;;;;;73.45;70.65;;;;;;;13.22;100.00;100749.22;5072677;28;20505;-75
2022/11/01 05:33:53;;;;;;;79.07;75.72;;;;;;;13.16;100.00;100722.41;5074131;28;20028;-76
2022/11/01 05:36:18;;;;;;;73.75;70.13;;;;;;;13.36;100.00;100748.56;5039876;28;20044;-75
2022/11/01 05:38:44;;;;;;;72.25;69.15;;;;;;;13.30;100.00;100734.16;5056542;28;20055;-77
2022/11/01 05:41:09;;;;;;;72.00;69.05;;;;;;;13.37;100.00;100740.44;5056960;28;20040;-75
2022/11/01 05:43:34;;;;;;;69.22;65.93;;;;;;;13.44;100.00;100756.50;5055912;28;20132;-75
2022/11/01 05:46:06;;;;;;;85.60;81.55;;;;;;;13.37;100.00;100735.16;5056113;28;20099;-75
2022/11/01 05:48:33;;;;;;;79.43;76.30;;;;;;;13.61;100.00;100762.56;5056463;28;20040;-77
2022/11/01 05:50:59;;;;;;;70.65;67.80;;;;;;;13.74;100.00;100772.59;5037423;28;20789;-77
2022/11/01 05:53:24;;;;;;;65.13;62.47;;;;;;;13.76;100.00;100773.25;5070743;28;20032;-77
2022/11/01 05:55:50;;;;;;;65.47;62.88;;;;;;;13.87;100.00;100766.75;5073377;28;20401;-76
2022/11/01 05:58:16;;;;;;;77.20;74.35;;;;;;;14.10;100.00;100767.63;5072050;28;20448;-76
2022/11/01 06:00:41;;;;;;;111.47;106.47;;;;;;;14.14;100.00;100754.84;5069492;28;20042;-76
2022/11/01 06:03:07;;;;;;;64.68;61.80;;;;;;;14.28;100.00;100762.03;5058440;28;20364;-76
2022/11/01 06:05:32;;;;;;;46.55;44.67;;;;;;;14.35;100.00;100783.38;5070893;28;20047;-76
2022/11/01 06:08:02;;;;;;;126.25;120.63;;;;;;;14.35;100.00;100776.28;5055114;28;20039;-76
2022/11/01 06:10:27;;;;;;;23.83;22.73;;;;;;;14.32;96.86;100771.28;5072122;28;20067;-75
2022/11/01 06:12:53;;;;;;;20.80;19.50;;;;;;;14.29;94.83;100797.38;5074753;28;20033;-76
2022/11/01 06:15:19;;;;;;;74.40;70.93;;;;;;;14.27;93.96;100788.78;5074291;28;20039;-76
2022/11/01 06:17:44;;;;;;;21.98;21.02;;;;;;;14.16;93.79;100784.69;5074183;28;20043;-76
2022/11/01 06:20:10;;;;;;;17.00;16.33;;;;;;;14.06;93.11;100807.97;5074057;28;20033;-76
2022/11/01 06:22:36;;;;;;;14.57;13.75;;;;;;;14.00;93.05;100820.06;5070865;28;20377;-76
2022/11/01 06:25:02;;;;;;;13.10;12.35;;;;;;;13.91;92.63;100811.31;5056566;28;20039;-76
2022/11/01 06:27:27;;;;;;;18.95;18.23;;;;;;;13.77;93.18;100812.06;5051482;28;20032;-75
2022/11/01 06:29:53;;;;;;;13.45;12.85;;;;;;;13.75;92.99;100829.97;5068727;28;20033;-75
2022/11/01 06:32:18;;;;;;;15.98;15.18;;;;;;;13.63;93.07;100823.38;5071209;28;20036;-76
2022/11/01 06:34:44;;;;;;;16.75;16.05;;;;;;;13.52;93.11;100828.06;5075004;28;20020;-76
2022/11/01 06:37:09;;;;;;;43.65;41.72;;;;;;;13.56;92.15;100834.66;5069050;28;20043;-75
2022/11/01 06:39:34;;;;;;;14.95;13.95;;;;;;;13.44;92.03;100814.81;5051147;28;20436;-75
2022/11/01 06:42:00;;;;;;;15.13;14.50;;;;;;;13.32;92.36;100816.97;5034830;28;20024;-75
2022/11/01 06:44:25;;;;;;;31.42;30.13;;;;;;;13.37;91.58;100830.59;5052867;28;20029;-74
2022/11/01 06:46:52;;;;;;;12.68;12.18;;;;;;;13.35;91.07;100826.44;5071912;28;20116;-74
2022/11/01 06:49:18;;;;;;;10.93;10.27;;;;;;;13.40;90.22;100841.84;5057265;28;20438;-74
2022/11/01 06:51:43;;;;;;;24.58;23.48;;;;;;;13.43;88.94;100842.31;5053748;28;20123;-74
2022/11/01 06:54:09;;;;;;;18.08;17.42;;;;;;;13.36;88.94;100838.69;5054417;28;20050;-74
2022/11/01 06:56:34;;;;;;;10.70;10.30;;;;;;;13.26;88.93;100843.31;5072639;28;20071;-75
2022/11/01 06:59:00;;;;;;;9.85;9.10;;;;;;;13.14;89.02;100838.34;5067272;28;20052;-75
2022/11/01 07:01:25;;;;;;;11.90;11.50;;;;;;;13.01;88.84;100830.09;5052756;28;20033;-75
2022/11/01 07:03:51;;;;;;;26.17;25.20;;;;;;;13.16;85.66;100828.41;5052489;28;20039;-75
2022/11/01 07:06:17;;;;;;;6.63;6.35;;;;;;;13.12;85.65;100848.28;5053515;28;20025;-74
2022/11/01 07:08:43;;;;;;;5.55;5.35;;;;;;;13.05;86.00;100862.38;5069412;28;20029;-75
2022/11/01 07:11:08;;;;;;;6.78;6.47;;;;;;;13.02;85.64;100871.50;5056286;28;20106;-74
2022/11/01 07:13:36;;;;;;;4.28;4.07;;;;;;;12.87;85.86;100851.94;5056523;28;20028;-74
2022/11/01 07:16:03;;;;;;;5.70;5.40;;;;;;;12.92;85.42;100868.16;5056502;28;20066;-74
2022/11/01 07:18:29;;;;;;;8.55;7.88;;;;;;;12.90;84.64;100880.75;5067655;28;20491;-74
2022/11/01 07:20:54;;;;;;;5.57;5.07;;;;;;;12.89;83.54;100869.34;5071037;28;20113;-74
2022/11/01 07:23:20;;;;;;;10.05;5.80;;;;;;;12.91;80.68;100850.59;5077764;28;20024;-74
2022/11/01 07:25:52;;;;;;;3.35;3.15;;;;;;;12.93;81.24;100886.56;5058024;28;20035;-76
2022/11/01 07:28:18;;;;;;;3.03;2.83;;;;;;;12.84;81.32;100886.69;5073352;28;20032;-74
2022/11/01 07:30:51;;;;;;;11.35;3.53;;;;;;;12.86;80.45;100893.47;5057167;28;20399;-74
2022/11/01 07:33:16;;;;;;;9.93;3.67;;;;;;;12.87;80.89;100873.97;5054347;28;20448;-74
2022/11/01 07:35:42;;;;;;;2.10;2.00;;;;;;;12.98;80.07;100891.34;5066507;28;20060;-74
2022/11/01 07:38:09;;;;;;;3.40;2.90;;;;;;;13.03;79.91;100901.47;5074116;28;20506;-74
2022/11/01 07:40:35;;;;;;;2.67;2.47;;;;;;;13.19;79.73;100909.41;5046706;28;20494;-74
2022/11/01 07:43:01;;;;;;;2.58;2.30;;;;;;;13.06;79.27;100883.38;5073436;28;20371;-75
2022/11/01 07:45:29;;;;;;;4.55;2.40;;;;;;;13.24;78.32;100903.59;5055501;28;20036;-74
2022/11/01 07:48:09;;;;;;;4.10;3.80;;;;;;;13.57;77.57;100893.84;5073502;28;20391;-74
2022/11/01 07:50:34;;;;;;;4.65;2.10;;;;;;;13.68;76.93;100888.19;5075048;28;20437;-74
2022/11/01 07:53:02;;;;;;;14.07;2.92;;;;;;;13.59;76.13;100873.28;5073730;28;20106;-74
2022/11/01 07:55:27;;;;;;;3.45;1.80;;;;;;;13.99;75.77;100888.25;5037669;28;20123;-75
2022/11/01 07:57:53;;;;;;;6.93;3.60;;;;;;;13.97;74.62;100879.63;5073740;28;20035;-74
2022/11/01 08:00:18;;;;;;;3.95;1.55;;;;;;;13.73;75.35;100874.41;5056485;28;20111;-75
2022/11/01 08:02:43;;;;;;;2.17;1.60;;;;;;;13.66;77.02;100895.47;5030298;28;20043;-74
2022/11/01 08:05:10;;;;;;;4.78;4.38;;;;;;;13.58;76.76;100916.69;5054405;28;20020;-75
2022/11/01 08:07:37;;;;;;;4.03;2.45;;;;;;;13.61;76.72;100907.56;5055522;28;20038;-75
2022/11/01 08:10:04;;;;;;;5.90;2.05;;;;;;;14.21;76.04;100909.72;5056628;28;20410;-75
2022/11/01 08:12:29;;;;;;;5.60;3.60;;;;;;;14.31;74.85;100902.41;5071403;28;20048;-74
2022/11/01 08:14:55;;;;;;;5.63;2.63;;;;;;;14.07;75.87;100931.69;5072403;28;20450;-75
2022/11/01 08:17:20;;;;;;;7.57;4.25;;;;;;;13.86;77.12;100927.75;5054798;28;20062;-74
2022/11/01 08:19:45;;;;;;;6.85;5.65;;;;;;;13.70;77.71;100920.66;5072492;28;20560;-75
2022/11/01 08:22:11;;;;;;;2.45;2.35;;;;;;;13.60;78.60;100925.31;5043584;28;21059;-75
2022/11/01 08:24:36;;;;;;;14.73;13.63;;;;;;;13.58;79.30;100932.59;5077698;28;21168;-75
2022/11/01 08:27:02;;;;;;;4.63;4.32;;;;;;;13.44;79.96;100910.25;5025464;28;20044;-74
2022/11/01 08:29:27;;;;;;;3.45;3.25;;;;;;;13.58;79.98;100927.31;5058878;28;20035;-74
2022/11/01 08:31:53;;;;;;;7.72;3.17;;;;;;;13.53;80.26;100949.03;5059288;28;20028;-74
2022/11/01 08:34:18;;;;;;;10.45;5.00;;;;;;;13.54;81.27;100948.03;5077491;28;20051;-75
2022/11/01 08:36:44;;;;;;;5.82;4.18;;;;;;;13.62;80.84;100959.63;5077919;28;20036;-74
2022/11/01 08:39:09;;;;;;;4.00;3.70;;;;;;;13.62;81.45;100956.97;5059328;28;20119;-74
2022/11/01 08:41:35;;;;;;;4.85;4.25;;;;;;;13.58;81.77;100957.28;5077794;28;20032;-75
2022/11/01 08:44:00;;;;;;;8.93;8.30;;;;;;;13.53;81.57;100946.38;5059155;28;20115;-75
2022/11/01 08:46:26;;;;;;;5.00;4.53;;;;;;;13.57;80.63;100974.22;5076635;28;20116;-75
2022/11/01 08:48:55;;;;;;;7.80;7.10;;;;;;;13.53;79.93;100961.47;5059562;28;20032;-75
2022/11/01 08:51:24;;;;;;;9.50;3.13;;;;;;;13.51;80.35;100972.22;5045304;28;20464;-75
2022/11/01 08:53:56;;;;;;;5.97;3.95;;;;;;;13.47;80.59;100970.06;5076218;28;20433;-75
2022/11/01 08:56:23;;;;;;;10.98;8.95;;;;;;;13.44;79.36;100965.13;5077635;28;20498;-74
2022/11/01 08:58:50;;;;;;;3.67;2.65;;;;;;;13.46;78.96;100966.59;5076369;28;20506;-74
2022/11/01 09:01:16;;;;;;;14.75;3.90;;;;;;;13.33;79.35;100955.66;5043188;28;20690;-75
2022/11/01 09:03:41;;;;;;;57.65;54.70;;;;;;;13.40;78.87;100974.41;5077484;28;20442;-75
2022/11/01 09:06:07;;;;;;;13.70;12.82;;;;;;;13.35;79.41;100966.94;5058826;28;20123;-74
2022/11/01 09:08:32;;;;;;;15.30;7.35;;;;;;;13.33;79.97;100968.91;5058725;28;20021;-74
2022/11/01 09:10:57;;;;;;;6.53;4.38;;;;;;;13.40;80.52;100979.69;5059731;28;20044;-74
2022/11/01 09:13:23;;;;;;;15.88;11.43;;;;;;;13.27;78.21;100945.69;5076438;28;20032;-76
2022/11/01 09:15:48;;;;;;;6.05;5.75;;;;;;;13.22;78.73;100964.75;5043187;28;20115;-75
2022/11/01 09:18:13;;;;;;;7.50;4.53;;;;;;;13.33;78.05;100982.19;5041391;28;20052;-74
2022/11/01 09:20:39;;;;;;;14.85;13.43;;;;;;;13.52;78.30;100987.16;5059870;28;20507;-74
2022/11/01 09:23:04;;;;;;;9.05;7.35;;;;;;;13.99;77.87;100991.72;5075756;28;20035;-74
2022/11/01 09:25:29;;;;;;;4.38;3.13;;;;;;;15.47;74.40;100987.56;5058172;28;20090;-75
2022/11/01 09:27:56;;;;;;;16.38;14.70;;;;;;;15.46;70.45;100997.38;5026511;28;20028;-74
2022/11/01 09:30:22;;;;;;;4.22;2.95;;;;;;;15.55;70.04;101000.81;5058351;28;20477;-74
2022/11/01 09:32:48;;;;;;;15.35;14.15;;;;;;;15.23;72.14;101003.50;5075156;28;20031;-74
2022/11/01 09:35:13;;;;;;;4.75;1.52;;;;;;;15.48;71.52;101013.97;5060594;28;20439;-74
2022/11/01 09:37:38;;;;;;;32.28;30.48;;;;;;;15.17;71.74;101011.38;5074663;28;20028;-74
2022/11/01 09:40:05;;;;;;;14.90;9.80;;;;;;;14.72;73.46;101004.97;5057549;28;20119;-74
2022/11/01 09:42:34;;;;;;;12.55;4.20;;;;;;;14.79;73.78;101006.78;5042956;28;20062;-74
2022/11/01 09:45:21;;;;;;;6.10;4.50;;;;;;;14.87;73.52;101013.84;5040640;28;20042;-74
2022/11/01 09:47:51;;;;;;;9.00;2.63;;;;;;;14.39;74.50;100987.34;5074348;28;20139;-74
2022/11/01 09:50:22;;;;;;;8.65;3.00;;;;;;;14.43;75.40;101032.13;5075995;28;20024;-74
2022/11/01 09:52:49;;;;;;;8.73;3.65;;;;;;;14.29;76.20;101013.25;5074278;28;20036;-74
2022/11/01 09:55:20;;;;;;;17.75;3.08;;;;;;;14.36;75.55;101026.66;5073053;28;20108;-74
2022/11/01 09:58:00;;;;;;;10.80;3.97;;;;;;;14.22;76.36;101033.50;5059850;28;20028;-75
2022/11/01 10:00:33;;;;;;;10.20;2.72;;;;;;;14.22;76.68;101037.97;5075398;28;20344;-74
2022/11/01 10:03:14;;;;;;;15.13;6.68;;;;;;;14.51;76.45;101046.19;5076712;28;20036;-74
2022/11/01 10:05:58;;;;;;;13.70;4.18;;;;;;;15.57;74.21;101046.66;5074294;28;20459;-74
2022/11/01 10:08:53;;;;;;;5.30;4.78;;;;;;;16.36;69.58;101051.66;5058171;28;20471;-74
2022/11/01 10:11:44;;;;;;;8.90;1.95;;;;;;;17.17;67.49;101057.81;5075166;28;20054;-74
2022/11/01 10:14:13;;;;;;;7.57;2.45;;;;;;;15.91;70.15;101070.19;5056612;28;20253;-74
2022/11/01 10:16:40;;;;;;;5.95;2.55;;;;;;;15.74;71.88;101039.41;5075304;28;20123;-74
2022/11/01 10:19:16;;;;;;;9.20;6.47;;;;;;;16.79;69.90;101067.81;5074368;28;20020;-74
2022/11/01 10:21:49;;;;;;;3.13;1.88;;;;;;;16.98;67.17;101077.09;5073933;28;20412;-75
2022/11/01 10:24:21;;;;;;;7.38;2.63;;;;;;;16.88;69.58;101084.56;5056718;28;20038;-75
2022/11/01 10:26:52;;;;;;;7.15;2.08;;;;;;;16.60;69.41;101075.34;5075394;28;20061;-75
2022/11/01 10:29:32;;;;;;;6.38;3.67;;;;;;;15.35;72.63;101096.19;5073955;28;20372;-75
2022/11/01 10:32:01;;;;;;;6.00;5.00;;;;;;;14.77;75.93;101088.47;5055549;28;20094;-74
2022/11/01 10:34:37;;;;;;;6.85;5.57;;;;;;;14.87;76.73;101103.38;5075113;28;20024;-74
2022/11/01 10:37:52;;;;;;;6.13;2.97;;;;;;;15.23;77.12;101112.53;5056831;28;20136;-74
2022/11/01 10:40:24;;;;;;;25.02;23.08;;;;;;;15.08;76.49;101118.75;5004645;28;20064;-74
2022/11/01 10:42:49;;;;;;;9.10;4.25;;;;;;;15.24;76.82;101116.00;5003200;28;20136;-74
2022/11/01 10:45:18;;;;;;;5.35;3.05;;;;;;;15.34;77.77;101121.94;5003147;28;20088;-74
2022/11/01 10:47:45;;;;;;;6.85;3.95;;;;;;;14.92;77.59;101111.69;5004259;28;20029;-74
2022/11/01 10:50:10;;;;;;;7.63;3.42;;;;;;;15.56;77.48;101119.50;4986711;28;20037;-74
2022/11/01 10:52:53;;;;;;;5.85;3.60;;;;;;;15.62;75.77;101116.97;5003302;28;20040;-74
2022/11/01 10:55:38;;;;;;;13.65;4.13;;;;;;;15.77;75.93;101127.69;4986800;28;20022;-74
2022/11/01 10:58:12;;;;;;;14.25;9.18;;;;;;;16.09;74.52;101125.81;5004497;28;20034;-74
2022/11/01 11:00:40;;;;;;;4.38;3.30;;;;;;;15.52;76.56;101134.97;5003380;28;20117;-75
2022/11/01 11:03:17;;;;;;;6.75;3.10;;;;;;;15.36;77.37;101127.09;4984391;28;20064;-76
2022/11/01 11:05:44;;;;;;;6.05;5.43;;;;;;;15.38;77.20;101119.78;4987677;28;20125;-74
2022/11/01 11:08:15;;;;;;;14.32;10.07;;;;;;;15.08;77.45;101143.50;5002912;28;20038;-75
2022/11/01 11:10:41;;;;;;;22.00;20.48;;;;;;;14.70;79.24;101140.66;5001617;28;20521;-75
2022/11/01 11:13:08;;;;;;;11.60;7.00;;;;;;;14.49;80.27;101154.44;4988033;28;20037;-75
2022/11/01 11:15:48;;;;;;;19.15;17.48;;;;;;;14.35;81.45;101155.94;5036285;28;20048;-75
2022/11/01 11:18:26;;;;;;;8.60;7.93;;;;;;;14.33;82.25;101159.75;5074441;28;20059;-76
2022/11/01 11:20:58;;;;;;;26.60;24.65;;;;;;;14.19;82.60;101153.28;5074035;28;20063;-75
2022/11/01 11:23:26;;;;;;;30.35;28.35;;;;;;;14.06;82.93;101163.56;5074081;28;20024;-75
2022/11/01 11:25:51;;;;;;;6.47;5.97;;;;;;;14.11;83.25;101167.41;5074449;28;20032;-75
2022/11/01 11:28:29;;;;;;;24.70;23.50;;;;;;;13.97;83.33;101150.28;5055400;28;20395;-75
2022/11/01 11:30:57;;;;;;;82.45;78.50;;;;;;;14.40;81.46;101161.56;5073687;28;20569;-74
2022/11/01 11:33:22;;;;;;;30.52;28.55;;;;;;;14.20;81.58;101157.59;5073357;28;20039;-74
2022/11/01 11:35:54;;;;;;;25.75;24.50;;;;;;;14.12;82.36;101179.66;5056787;28;20392;-74
2022/11/01 11:38:39;;;;;;;14.73;13.40;;;;;;;13.97;82.73;101166.22;5074029;28;20039;-74